createdAt,value
2018-01-31T01:52:20.512Z,0
2018-01-31T01:52:21.163Z,0
2018-01-31T01:52:21.981Z,0
2018-01-31T01:52:43.736Z,0
2018-01-31T01:53:24.255Z,0
2018-01-31T01:54:04.778Z,0
2018-01-31T01:54:45.411Z,0
2018-01-31T01:55:25.877Z,0
2018-01-31T01:56:06.612Z,0
2018-01-31T01:56:47.208Z,0
2018-01-31T01:57:27.718Z,0
2018-01-31T01:58:08.205Z,0
2018-01-31T01:58:48.752Z,0
2018-01-31T01:59:29.274Z,0
2018-01-31T02:00:09.861Z,0
2018-01-31T02:00:50.449Z,0
2018-01-31T02:01:31.001Z,0
2018-01-31T02:02:11.557Z,0
2018-01-31T02:02:53.044Z,0
2018-01-31T02:03:33.548Z,0
2018-01-31T02:04:14.088Z,0
2018-01-31T02:04:54.656Z,0
2018-01-31T02:05:35.161Z,0
2018-01-31T02:06:15.753Z,0
2018-01-31T02:06:56.301Z,0
2018-01-31T02:07:36.822Z,0
2018-01-31T02:08:17.488Z,0
2018-01-31T02:08:58.112Z,0
2018-01-31T02:09:38.621Z,0
2018-01-31T02:10:19.161Z,0
2018-01-31T02:10:59.701Z,0
2018-01-31T02:11:40.229Z,0
2018-01-31T02:12:20.797Z,0
2018-01-31T02:13:01.287Z,0
2018-01-31T02:13:41.899Z,0
2018-01-31T02:14:22.423Z,0
2018-01-31T02:15:03.009Z,0
2018-01-31T02:15:43.549Z,0
2018-01-31T02:16:24.116Z,0
2018-01-31T02:17:04.613Z,0
2018-01-31T02:17:45.179Z,0
2018-01-31T02:18:25.686Z,0
2018-01-31T02:19:06.239Z,0
2018-01-31T02:19:46.798Z,0
2018-01-31T02:20:27.289Z,0
2018-01-31T02:21:07.827Z,0
2018-01-31T02:21:48.399Z,0
2018-01-31T02:22:28.951Z,0
2018-01-31T02:23:09.515Z,0
2018-01-31T02:23:50.044Z,0
2018-01-31T02:24:30.545Z,0
2018-01-31T02:25:11.106Z,0
2018-01-31T02:25:51.661Z,0
2018-01-31T02:26:32.192Z,0
2018-01-31T02:27:12.740Z,0
2018-01-31T02:27:53.374Z,0
2018-01-31T02:28:33.964Z,0
2018-01-31T02:29:14.500Z,0
2018-01-31T02:29:55.040Z,0
2018-01-31T02:30:35.572Z,0
2018-01-31T02:31:16.094Z,0
2018-01-31T02:31:56.618Z,0
2018-01-31T02:32:37.167Z,0
2018-01-31T02:33:17.702Z,0
2018-01-31T02:33:58.277Z,0
2018-01-31T02:34:38.784Z,0
2018-01-31T02:35:19.364Z,0
2018-01-31T02:35:59.918Z,0
2018-01-31T02:36:40.412Z,0
2018-01-31T02:37:20.984Z,0
2018-01-31T02:38:01.521Z,0
2018-01-31T02:38:42.054Z,0
2018-01-31T02:39:22.616Z,0
2018-01-31T02:40:03.165Z,0
2018-01-31T02:40:43.655Z,0
2018-01-31T02:41:24.204Z,0
2018-01-31T02:42:04.716Z,0
2018-01-31T02:42:45.248Z,0
2018-01-31T02:43:25.770Z,0
2018-01-31T02:44:06.251Z,0
2018-01-31T02:44:46.779Z,0
2018-01-31T02:45:27.301Z,0
2018-01-31T02:46:07.863Z,0
2018-01-31T02:46:48.395Z,0
2018-01-31T02:47:28.929Z,0
2018-01-31T02:48:09.456Z,0
2018-01-31T02:48:50.008Z,0
2018-01-31T02:49:30.545Z,0
2018-01-31T02:50:11.121Z,0
2018-01-31T02:50:51.667Z,0
2018-01-31T02:51:32.214Z,0
2018-01-31T02:52:12.674Z,0
2018-01-31T02:52:53.220Z,0
2018-01-31T02:53:33.754Z,0
2018-01-31T02:54:14.310Z,0
2018-01-31T02:54:54.867Z,0
2018-01-31T02:55:35.434Z,0
2018-01-31T02:56:15.944Z,0
2018-01-31T02:56:56.468Z,0
2018-01-31T02:57:37.001Z,0
2018-01-31T02:58:17.563Z,0
2018-01-31T02:58:58.056Z,0
2018-01-31T02:59:38.556Z,0
2018-01-31T03:00:19.113Z,0
2018-01-31T03:00:59.678Z,0
2018-01-31T03:01:40.246Z,0
2018-01-31T03:02:20.724Z,0
2018-01-31T03:03:01.302Z,0
2018-01-31T03:03:41.826Z,0
2018-01-31T03:04:22.364Z,0
2018-01-31T03:05:02.920Z,0
2018-01-31T03:05:43.460Z,0
2018-01-31T03:06:23.978Z,0
2018-01-31T03:07:04.547Z,0
2018-01-31T03:07:45.086Z,0
2018-01-31T03:08:25.627Z,0
2018-01-31T03:09:06.162Z,0
2018-01-31T03:09:46.699Z,0
2018-01-31T03:10:27.232Z,0
2018-01-31T03:11:07.796Z,0
2018-01-31T03:11:48.321Z,0
2018-01-31T03:12:28.857Z,0
2018-01-31T03:13:09.379Z,0
2018-01-31T03:13:49.950Z,0
2018-01-31T03:14:30.485Z,0
2018-01-31T03:15:10.995Z,0
2018-01-31T03:15:51.541Z,0
2018-01-31T03:16:32.105Z,0
2018-01-31T03:17:12.622Z,0
2018-01-31T03:17:53.131Z,0
2018-01-31T03:18:33.690Z,0
2018-01-31T03:19:14.232Z,0
2018-01-31T03:19:54.771Z,0
2018-01-31T03:20:35.340Z,0
2018-01-31T03:21:15.853Z,0
2018-01-31T03:21:56.425Z,0
2018-01-31T03:22:36.971Z,0
2018-01-31T03:23:17.491Z,0
2018-01-31T03:23:58.002Z,0
2018-01-31T03:24:38.522Z,0
2018-01-31T03:25:19.095Z,0
2018-01-31T03:25:59.582Z,0
2018-01-31T03:26:40.113Z,0
2018-01-31T03:27:20.650Z,0
2018-01-31T03:28:01.192Z,0
2018-01-31T03:28:41.727Z,0
2018-01-31T03:29:22.271Z,0
2018-01-31T03:30:02.760Z,0
2018-01-31T03:30:43.332Z,0
2018-01-31T03:31:23.984Z,0
2018-01-31T03:32:04.505Z,0
2018-01-31T03:32:45.026Z,0
2018-01-31T03:33:25.625Z,0
2018-01-31T03:34:06.143Z,0
2018-01-31T03:34:46.639Z,0
2018-01-31T03:35:27.244Z,0
2018-01-31T03:36:07.912Z,0
2018-01-31T03:36:48.508Z,0
2018-01-31T03:37:29.035Z,0
2018-01-31T03:38:09.564Z,0
2018-01-31T03:38:50.085Z,0
2018-01-31T03:39:30.613Z,0
2018-01-31T03:40:11.252Z,0
2018-01-31T03:40:51.825Z,0
2018-01-31T03:41:32.332Z,0
2018-01-31T03:42:12.857Z,0
2018-01-31T03:42:53.419Z,0
2018-01-31T03:43:33.962Z,0
2018-01-31T03:44:14.493Z,0
2018-01-31T03:44:55.035Z,0
2018-01-31T03:45:35.548Z,0
2018-01-31T03:46:16.137Z,0
2018-01-31T03:46:56.664Z,0
2018-01-31T03:47:37.219Z,0
2018-01-31T03:48:17.708Z,0
2018-01-31T03:48:58.301Z,0
2018-01-31T03:49:38.823Z,0
2018-01-31T03:50:19.343Z,0
2018-01-31T03:50:59.865Z,0
2018-01-31T03:51:40.393Z,0
2018-01-31T03:52:20.959Z,0
2018-01-31T03:53:01.487Z,0
2018-01-31T03:53:41.973Z,0
2018-01-31T03:54:22.509Z,0
2018-01-31T03:55:03.055Z,0
2018-01-31T03:55:43.557Z,0
2018-01-31T03:56:24.100Z,0
2018-01-31T03:57:04.619Z,0
2018-01-31T03:57:45.143Z,0
2018-01-31T03:58:25.671Z,0
2018-01-31T03:59:06.185Z,0
2018-01-31T03:59:46.746Z,0
2018-01-31T04:00:27.331Z,0
2018-01-31T04:01:07.817Z,0
2018-01-31T04:01:48.356Z,0
2018-01-31T04:02:28.962Z,0
2018-01-31T04:03:09.455Z,0
2018-01-31T04:03:49.996Z,0
2018-01-31T04:04:30.540Z,0
2018-01-31T04:05:11.050Z,0
2018-01-31T04:05:51.753Z,0
2018-01-31T04:06:32.354Z,0
2018-01-31T04:07:12.837Z,0
2018-01-31T04:07:53.427Z,0
2018-01-31T04:08:33.913Z,0
2018-01-31T04:09:14.481Z,0
2018-01-31T04:09:54.978Z,0
2018-01-31T04:10:35.570Z,0
2018-01-31T04:11:16.166Z,0
2018-01-31T04:11:56.658Z,0
2018-01-31T04:12:37.230Z,0
2018-01-31T04:13:17.776Z,0
2018-01-31T04:13:58.386Z,0
2018-01-31T04:14:38.856Z,0
2018-01-31T04:15:19.471Z,0
2018-01-31T04:15:59.953Z,0
2018-01-31T04:16:40.512Z,0
2018-01-31T04:17:21.004Z,0
2018-01-31T04:18:01.602Z,0
2018-01-31T04:18:42.058Z,0
2018-01-31T04:19:22.622Z,0
2018-01-31T04:20:03.151Z,0
2018-01-31T04:20:43.655Z,0
2018-01-31T04:21:24.247Z,0
2018-01-31T04:22:04.712Z,0
2018-01-31T04:22:45.282Z,0
2018-01-31T04:23:25.829Z,0
2018-01-31T04:24:06.315Z,0
2018-01-31T04:24:46.897Z,0
2018-01-31T04:25:27.429Z,0
2018-01-31T04:26:07.932Z,0
2018-01-31T04:26:48.461Z,0
2018-01-31T04:27:28.950Z,0
2018-01-31T04:28:09.494Z,0
2018-01-31T04:28:50.042Z,0
2018-01-31T04:29:30.559Z,0
2018-01-31T04:30:11.061Z,0
2018-01-31T04:30:51.593Z,0
2018-01-31T04:31:32.126Z,0
2018-01-31T04:32:12.640Z,0
2018-01-31T04:32:53.237Z,0
2018-01-31T04:33:33.759Z,0
2018-01-31T04:34:14.260Z,0
2018-01-31T04:34:54.861Z,0
2018-01-31T04:35:35.357Z,0
2018-01-31T04:36:15.923Z,0
2018-01-31T04:36:56.430Z,0
2018-01-31T04:37:37.030Z,0
2018-01-31T04:38:17.548Z,0
2018-01-31T04:38:58.092Z,0
2018-01-31T04:39:38.572Z,0
2018-01-31T04:40:19.121Z,0
2018-01-31T04:40:59.689Z,0
2018-01-31T04:41:40.200Z,0
2018-01-31T04:42:20.764Z,0
2018-01-31T04:43:01.257Z,0
2018-01-31T04:43:41.794Z,0
2018-01-31T04:44:22.344Z,0
2018-01-31T04:45:02.952Z,0
2018-01-31T04:45:43.439Z,0
2018-01-31T04:46:24.062Z,0
2018-01-31T04:47:04.629Z,0
2018-01-31T04:47:45.179Z,0
2018-01-31T04:48:25.729Z,0
2018-01-31T04:49:06.298Z,0
2018-01-31T04:49:46.824Z,0
2018-01-31T04:50:27.391Z,0
2018-01-31T04:51:07.999Z,0
2018-01-31T04:51:48.453Z,0
2018-01-31T04:52:29.037Z,0
2018-01-31T04:53:09.527Z,0
2018-01-31T04:53:50.062Z,0
2018-01-31T04:54:30.578Z,0
2018-01-31T04:55:11.100Z,0
2018-01-31T04:55:51.644Z,0
2018-01-31T04:56:32.166Z,0
2018-01-31T04:57:12.685Z,0
2018-01-31T04:57:53.218Z,0
2018-01-31T04:58:33.708Z,0
2018-01-31T04:59:14.376Z,0
2018-01-31T04:59:54.888Z,0
2018-01-31T05:00:35.456Z,0
2018-01-31T05:01:15.936Z,0
2018-01-31T05:01:56.487Z,0
2018-01-31T05:02:37.001Z,0
2018-01-31T05:03:17.487Z,0
2018-01-31T05:03:58.052Z,0
2018-01-31T05:04:38.592Z,0
2018-01-31T05:05:19.098Z,0
2018-01-31T05:05:59.704Z,0
2018-01-31T05:06:40.212Z,0
2018-01-31T05:07:20.766Z,0
2018-01-31T05:08:01.311Z,0
2018-01-31T05:08:41.949Z,0
2018-01-31T05:09:22.507Z,0
2018-01-31T05:10:02.880Z,0
2018-01-31T05:10:43.542Z,0
2018-01-31T05:11:24.274Z,0
2018-01-31T05:12:04.773Z,0
2018-01-31T05:12:45.332Z,0
2018-01-31T05:13:25.901Z,0
2018-01-31T05:14:06.389Z,0
2018-01-31T05:14:46.960Z,0
2018-01-31T05:15:27.492Z,0
2018-01-31T05:16:08.070Z,0
2018-01-31T05:16:48.571Z,0
2018-01-31T05:17:29.097Z,0
2018-01-31T05:18:09.650Z,0
2018-01-31T05:18:50.180Z,0
2018-01-31T05:19:30.722Z,0
2018-01-31T05:20:11.281Z,0
2018-01-31T05:22:44.969Z,0
2018-01-31T05:23:25.570Z,0
2018-01-31T05:24:06.134Z,0
2018-01-31T05:24:46.626Z,0
2018-01-31T05:25:27.214Z,0
2018-01-31T05:26:07.689Z,0
2018-01-31T05:26:48.258Z,0
2018-01-31T05:27:28.778Z,0
2018-01-31T05:28:09.280Z,0
2018-01-31T05:28:49.935Z,0
2018-01-31T05:29:32.280Z,0
2018-01-31T05:30:15.189Z,0
2018-01-31T05:30:55.890Z,0
2018-01-31T05:31:36.951Z,0
2018-01-31T05:32:17.680Z,0
2018-01-31T05:32:58.829Z,0
2018-01-31T05:33:40.351Z,0
2018-01-31T05:34:21.340Z,0
2018-01-31T05:35:03.298Z,0
2018-01-31T05:35:43.846Z,0
2018-01-31T05:36:24.836Z,0
2018-01-31T05:37:05.491Z,0
2018-01-31T05:37:47.652Z,0
2018-01-31T05:38:28.490Z,0
2018-01-31T05:39:09.357Z,0
2018-01-31T05:39:51.529Z,0
2018-01-31T05:40:33.403Z,0
2018-01-31T05:41:16.161Z,0
2018-01-31T05:41:55.720Z,0
2018-01-31T05:42:36.415Z,0
2018-01-31T05:43:16.918Z,0
2018-01-31T05:43:57.478Z,0
2018-01-31T05:44:38.135Z,0
2018-01-31T05:45:18.929Z,0
2018-01-31T05:45:59.373Z,0
2018-01-31T05:46:40.022Z,0
2018-01-31T05:47:20.621Z,0
2018-01-31T05:48:01.156Z,0
2018-01-31T05:48:41.697Z,0
2018-01-31T05:49:22.233Z,0
2018-01-31T05:50:02.830Z,0
2018-01-31T05:50:44.471Z,0
2018-01-31T05:51:25.977Z,0
2018-01-31T05:52:08.977Z,0
2018-01-31T05:52:50.235Z,0
2018-01-31T05:53:31.361Z,0
2018-01-31T05:54:11.911Z,0
2018-01-31T05:54:53.020Z,0
2018-01-31T05:55:33.885Z,0
2018-01-31T05:56:14.419Z,0
2018-01-31T05:56:55.077Z,0
2018-01-31T05:57:35.608Z,0
2018-01-31T05:58:16.158Z,0
2018-01-31T05:58:56.858Z,0
2018-01-31T05:59:37.310Z,0
2018-01-31T06:00:17.874Z,0
2018-01-31T06:00:58.689Z,0
2018-01-31T06:01:39.368Z,0
2018-01-31T06:02:19.923Z,0
2018-01-31T06:03:00.722Z,0
2018-01-31T06:03:41.848Z,0
2018-01-31T06:04:23.039Z,0
2018-01-31T06:05:04.123Z,0
2018-01-31T06:05:45.032Z,0
2018-01-31T06:06:25.665Z,0
2018-01-31T06:07:06.169Z,0
2018-01-31T06:07:46.757Z,0
2018-01-31T06:08:27.183Z,0
2018-01-31T06:09:08.529Z,0
2018-01-31T06:09:49.220Z,0
2018-01-31T06:10:29.750Z,0
2018-01-31T06:11:10.368Z,0
2018-01-31T06:11:51.328Z,0
2018-01-31T06:12:34.615Z,0
2018-01-31T06:13:14.870Z,0
2018-01-31T06:13:56.251Z,0
2018-01-31T06:14:36.601Z,0
2018-01-31T06:15:17.186Z,0
2018-01-31T06:15:58.258Z,0
2018-01-31T06:16:39.176Z,0
2018-01-31T06:17:19.854Z,0
2018-01-31T06:18:00.353Z,0
2018-01-31T06:18:42.200Z,0
2018-01-31T06:19:23.593Z,0
2018-01-31T06:20:04.138Z,0
2018-01-31T06:20:44.789Z,0
2018-01-31T06:21:25.324Z,0
2018-01-31T06:22:06.414Z,0
2018-01-31T06:22:46.481Z,0
2018-01-31T06:23:27.109Z,0
2018-01-31T06:24:07.611Z,0
2018-01-31T06:24:48.155Z,0
2018-01-31T06:25:28.673Z,0
2018-01-31T06:26:09.216Z,0
2018-01-31T06:26:49.773Z,0
2018-01-31T06:27:30.308Z,0
2018-01-31T06:28:10.857Z,0
2018-01-31T06:28:51.402Z,0
2018-01-31T06:29:31.965Z,0
2018-01-31T06:30:12.487Z,0
2018-01-31T06:30:53.001Z,4
2018-01-31T06:31:33.544Z,4
2018-01-31T06:32:14.209Z,4
2018-01-31T06:32:54.618Z,4
2018-01-31T06:33:35.305Z,4
2018-01-31T06:34:15.723Z,0
2018-01-31T06:34:56.225Z,0
2018-01-31T06:35:36.805Z,4
2018-01-31T06:36:17.407Z,4
2018-01-31T06:36:57.860Z,4
2018-01-31T06:37:38.422Z,4
2018-01-31T06:38:19.009Z,4
2018-01-31T06:38:59.775Z,4
2018-01-31T06:39:40.293Z,8
2018-01-31T06:40:20.850Z,4
2018-01-31T06:41:01.365Z,8
2018-01-31T06:41:41.945Z,8
2018-01-31T06:42:22.521Z,4
2018-01-31T06:43:03.135Z,8
2018-01-31T06:43:43.603Z,12
2018-01-31T06:44:24.168Z,8
2018-01-31T06:45:04.747Z,12
2018-01-31T06:45:45.243Z,12
2018-01-31T06:46:25.832Z,12
2018-01-31T06:47:06.358Z,16
2018-01-31T06:47:46.918Z,16
2018-01-31T06:48:27.436Z,16
2018-01-31T06:49:07.947Z,16
2018-01-31T06:49:48.538Z,20
2018-01-31T06:50:29.038Z,20
2018-01-31T06:51:09.567Z,24
2018-01-31T06:51:50.249Z,24
2018-01-31T06:52:31.329Z,28
2018-01-31T06:53:11.819Z,32
2018-01-31T06:53:52.382Z,36
2018-01-31T06:54:32.970Z,40
2018-01-31T06:55:13.484Z,44
2018-01-31T06:55:54.043Z,48
2018-01-31T06:56:34.582Z,48
2018-01-31T06:57:15.154Z,52
2018-01-31T06:57:56.263Z,56
2018-01-31T06:58:36.778Z,56
2018-01-31T06:59:17.419Z,56
2018-01-31T06:59:57.922Z,60
2018-01-31T07:00:38.509Z,60
2018-01-31T07:01:19.034Z,64
2018-01-31T07:01:59.622Z,68
2018-01-31T07:02:40.242Z,68
2018-01-31T07:03:20.805Z,72
2018-01-31T07:04:01.311Z,80
2018-01-31T07:04:41.893Z,80
2018-01-31T07:05:23.179Z,92
2018-01-31T07:06:03.701Z,96
2018-01-31T07:06:44.184Z,104
2018-01-31T07:07:24.718Z,108
2018-01-31T07:08:05.242Z,116
2018-01-31T07:08:45.860Z,124
2018-01-31T07:09:26.406Z,128
2018-01-31T07:10:07.059Z,136
2018-01-31T07:10:47.797Z,140
2018-01-31T07:11:28.336Z,144
2018-01-31T07:12:08.959Z,152
2018-01-31T07:12:49.427Z,160
2018-01-31T07:13:30.003Z,172
2018-01-31T07:14:10.527Z,176
2018-01-31T07:14:51.093Z,192
2018-01-31T07:15:31.623Z,204
2018-01-31T07:16:12.188Z,224
2018-01-31T07:16:53.479Z,244
2018-01-31T07:17:34.067Z,268
2018-01-31T07:18:15.207Z,288
2018-01-31T07:18:56.550Z,304
2018-01-31T07:19:37.489Z,328
2018-01-31T07:20:20.385Z,356
2018-01-31T07:20:58.797Z,384
2018-01-31T07:21:41.069Z,412
2018-01-31T07:23:41.944Z,472
2018-01-31T07:24:22.498Z,492
2018-01-31T07:25:03.076Z,508
2018-01-31T07:25:43.657Z,528
2018-01-31T07:26:24.197Z,544
2018-01-31T07:27:04.698Z,548
2018-01-31T07:27:45.206Z,544
2018-01-31T07:28:25.764Z,536
2018-01-31T07:29:06.289Z,524
2018-01-31T07:29:46.819Z,512
2018-01-31T07:30:27.346Z,508
2018-01-31T07:31:07.912Z,504
2018-01-31T07:31:48.458Z,500
2018-01-31T07:32:29.034Z,496
2018-01-31T07:33:09.538Z,492
2018-01-31T07:33:50.048Z,488
2018-01-31T07:34:30.612Z,492
2018-01-31T07:35:11.182Z,492
2018-01-31T07:35:51.765Z,496
2018-01-31T07:36:32.333Z,504
2018-01-31T07:37:12.813Z,512
2018-01-31T07:37:53.346Z,524
2018-01-31T07:38:33.947Z,540
2018-01-31T07:39:14.582Z,556
2018-01-31T07:39:55.123Z,576
2018-01-31T07:40:35.872Z,592
2018-01-31T07:41:16.477Z,612
2018-01-31T07:41:56.955Z,624
2018-01-31T07:42:37.480Z,640
2018-01-31T07:43:18.077Z,652
2018-01-31T07:43:58.635Z,668
2018-01-31T07:44:39.143Z,680
2018-01-31T07:45:19.681Z,700
2018-01-31T07:46:00.257Z,708
2018-01-31T07:46:40.780Z,716
2018-01-31T07:47:21.347Z,732
2018-01-31T07:48:01.938Z,760
2018-01-31T07:48:42.494Z,760
2018-01-31T07:49:23.041Z,748
2018-01-31T07:50:03.557Z,752
2018-01-31T07:50:44.190Z,760
2018-01-31T07:51:24.818Z,776
2018-01-31T07:52:05.351Z,788
2018-01-31T07:52:45.888Z,788
2018-01-31T07:53:26.417Z,796
2018-01-31T07:54:06.950Z,796
2018-01-31T07:54:47.458Z,796
2018-01-31T07:55:27.990Z,796
2018-01-31T07:56:08.505Z,800
2018-01-31T07:56:49.090Z,800
2018-01-31T07:57:29.650Z,808
2018-01-31T07:58:10.164Z,820
2018-01-31T07:58:50.638Z,828
2018-01-31T07:59:31.270Z,836
2018-01-31T08:00:11.889Z,836
2018-01-31T08:00:52.431Z,840
2018-01-31T08:01:33.001Z,840
2018-01-31T08:02:13.490Z,844
2018-01-31T08:02:54.066Z,836
2018-01-31T08:03:34.597Z,828
2018-01-31T08:04:15.151Z,828
2018-01-31T08:04:55.704Z,828
2018-01-31T08:05:36.155Z,840
2018-01-31T08:06:16.720Z,872
2018-01-31T08:06:57.306Z,912
2018-01-31T08:07:37.809Z,952
2018-01-31T08:08:18.331Z,988
2018-01-31T08:08:58.844Z,1016
2018-01-31T08:09:39.417Z,1056
2018-01-31T08:10:19.952Z,1108
2018-01-31T08:11:00.566Z,1184
2018-01-31T08:11:41.138Z,1232
2018-01-31T08:12:21.702Z,1272
2018-01-31T08:13:02.197Z,1292
2018-01-31T08:13:42.799Z,1316
2018-01-31T08:14:23.359Z,1352
2018-01-31T08:15:03.889Z,1364
2018-01-31T08:15:44.443Z,1348
2018-01-31T08:16:24.987Z,1312
2018-01-31T08:17:05.529Z,1284
2018-01-31T08:17:46.099Z,1276
2018-01-31T08:18:26.667Z,1292
2018-01-31T08:19:07.178Z,1292
2018-01-31T08:19:47.744Z,1256
2018-01-31T08:20:28.313Z,1188
2018-01-31T08:21:08.883Z,1140
2018-01-31T08:21:49.451Z,1112
2018-01-31T08:22:29.944Z,1088
2018-01-31T08:23:10.524Z,1100
2018-01-31T08:23:51.040Z,1128
2018-01-31T08:24:31.612Z,1152
2018-01-31T08:25:12.150Z,1136
2018-01-31T08:25:52.708Z,1076
2018-01-31T08:26:33.257Z,988
2018-01-31T08:27:13.785Z,920
2018-01-31T08:27:54.316Z,884
2018-01-31T08:28:34.865Z,840
2018-01-31T08:29:15.405Z,804
2018-01-31T08:29:55.941Z,780
2018-01-31T08:30:36.443Z,788
2018-01-31T08:31:17.000Z,800
2018-01-31T08:31:57.516Z,844
2018-01-31T08:32:38.043Z,1004
2018-01-31T08:33:18.604Z,1080
2018-01-31T08:33:59.149Z,1040
2018-01-31T08:34:39.688Z,1068
2018-01-31T08:35:20.226Z,1116
2018-01-31T08:36:00.788Z,1156
2018-01-31T08:36:41.333Z,1204
2018-01-31T08:37:21.823Z,1244
2018-01-31T08:38:02.339Z,1268
2018-01-31T08:38:42.880Z,1320
2018-01-31T08:39:23.391Z,1420
2018-01-31T08:40:03.942Z,1524
2018-01-31T08:40:44.470Z,1584
2018-01-31T08:41:25.051Z,1596
2018-01-31T08:42:05.567Z,1576
2018-01-31T08:42:46.079Z,1580
2018-01-31T08:43:26.639Z,1548
2018-01-31T08:44:07.197Z,1572
2018-01-31T08:44:47.708Z,1604
2018-01-31T08:45:28.276Z,1660
2018-01-31T08:46:08.800Z,1724
2018-01-31T08:46:49.449Z,1788
2018-01-31T08:47:29.869Z,1888
2018-01-31T08:48:10.435Z,1964
2018-01-31T08:48:50.981Z,1936
2018-01-31T08:49:31.513Z,1852
2018-01-31T08:50:12.081Z,1776
2018-01-31T08:50:52.617Z,1708
2018-01-31T08:51:33.153Z,1672
2018-01-31T08:52:13.709Z,1680
2018-01-31T08:52:54.251Z,1716
2018-01-31T08:53:34.850Z,1756
2018-01-31T08:54:15.397Z,1776
2018-01-31T08:54:55.944Z,1772
2018-01-31T08:55:36.497Z,1812
2018-01-31T08:56:17.025Z,1816
2018-01-31T08:56:57.564Z,1840
2018-01-31T08:57:38.130Z,1936
2018-01-31T08:58:18.685Z,2144
2018-01-31T08:58:59.264Z,2296
2018-01-31T08:59:39.802Z,2248
2018-01-31T09:00:20.340Z,2216
2018-01-31T09:01:00.880Z,2328
2018-01-31T09:01:41.468Z,2648
2018-01-31T09:02:21.986Z,2744
2018-01-31T09:03:02.516Z,2540
2018-01-31T09:03:43.057Z,2180
2018-01-31T09:04:23.583Z,1988
2018-01-31T09:05:04.210Z,2104
2018-01-31T09:05:44.744Z,2292
2018-01-31T09:06:25.290Z,2420
2018-01-31T09:07:05.819Z,2436
2018-01-31T09:07:46.363Z,2424
2018-01-31T09:08:26.887Z,2252
2018-01-31T09:09:07.475Z,2148
2018-01-31T09:09:48.007Z,2008
2018-01-31T09:10:28.585Z,1956
2018-01-31T09:11:09.096Z,1956
2018-01-31T09:11:49.639Z,2036
2018-01-31T09:12:30.176Z,2088
2018-01-31T09:13:10.740Z,2116
2018-01-31T09:13:51.288Z,2256
2018-01-31T09:14:31.858Z,2380
2018-01-31T09:15:12.413Z,2440
2018-01-31T09:15:52.944Z,2480
2018-01-31T09:16:33.477Z,2440
2018-01-31T09:17:14.003Z,2268
2018-01-31T09:17:54.523Z,2120
2018-01-31T09:18:35.049Z,2040
2018-01-31T09:19:15.597Z,2112
2018-01-31T09:19:56.187Z,2244
2018-01-31T09:20:36.687Z,2420
2018-01-31T09:21:17.237Z,2556
2018-01-31T09:21:57.765Z,2592
2018-01-31T09:22:38.327Z,2700
2018-01-31T09:23:18.859Z,2816
2018-01-31T09:23:59.399Z,2920
2018-01-31T09:24:39.931Z,3068
2018-01-31T09:25:20.474Z,3284
2018-01-31T09:26:00.969Z,3500
2018-01-31T09:26:41.537Z,3704
2018-01-31T09:27:22.127Z,3960
2018-01-31T09:28:02.657Z,4176
2018-01-31T09:28:43.235Z,4312
2018-01-31T09:29:23.822Z,4400
2018-01-31T09:30:04.359Z,4552
2018-01-31T09:30:44.909Z,4548
2018-01-31T09:31:25.431Z,4556
2018-01-31T09:32:05.983Z,4604
2018-01-31T09:32:46.543Z,4600
2018-01-31T09:33:27.033Z,4544
2018-01-31T09:34:07.584Z,4560
2018-01-31T09:34:48.121Z,4632
2018-01-31T09:35:28.650Z,4840
2018-01-31T09:36:09.190Z,4816
2018-01-31T09:36:49.746Z,4716
2018-01-31T09:37:30.301Z,4444
2018-01-31T09:38:10.841Z,4304
2018-01-31T09:38:51.386Z,4100
2018-01-31T09:39:31.953Z,3792
2018-01-31T09:40:12.473Z,3480
2018-01-31T09:40:53.022Z,3208
2018-01-31T09:41:33.562Z,3120
2018-01-31T09:42:14.131Z,3152
2018-01-31T09:42:54.688Z,3168
2018-01-31T09:43:35.272Z,3244
2018-01-31T09:44:15.836Z,3340
2018-01-31T09:44:56.347Z,3312
2018-01-31T09:45:36.880Z,3160
2018-01-31T09:46:17.573Z,2928
2018-01-31T09:46:58.136Z,2744
2018-01-31T09:47:38.669Z,2688
2018-01-31T09:48:19.249Z,2748
2018-01-31T09:48:59.767Z,2872
2018-01-31T09:49:40.317Z,3020
2018-01-31T09:50:20.838Z,3220
2018-01-31T09:51:01.412Z,3476
2018-01-31T09:51:41.974Z,3592
2018-01-31T09:52:22.538Z,3596
2018-01-31T09:53:03.191Z,3528
2018-01-31T09:53:43.665Z,3488
2018-01-31T09:54:24.180Z,3536
2018-01-31T09:55:04.711Z,3628
2018-01-31T09:55:45.272Z,3724
2018-01-31T09:56:25.816Z,3684
2018-01-31T09:57:06.347Z,3512
2018-01-31T09:57:46.902Z,3288
2018-01-31T09:58:27.480Z,3008
2018-01-31T09:59:08.017Z,2756
2018-01-31T09:59:48.560Z,2632
2018-01-31T10:00:29.090Z,2604
2018-01-31T10:01:09.595Z,2616
2018-01-31T10:01:50.150Z,2684
2018-01-31T10:02:30.697Z,2748
2018-01-31T10:03:11.235Z,2820
2018-01-31T10:03:51.787Z,2924
2018-01-31T10:04:32.314Z,3016
2018-01-31T10:05:12.885Z,3052
2018-01-31T10:05:53.365Z,3032
2018-01-31T10:06:33.913Z,2948
2018-01-31T10:07:14.428Z,2812
2018-01-31T10:07:54.937Z,2640
2018-01-31T10:08:35.482Z,2464
2018-01-31T10:09:16.027Z,2288
2018-01-31T10:09:56.563Z,2168
2018-01-31T10:10:37.210Z,2136
2018-01-31T10:11:17.775Z,2168
2018-01-31T10:11:58.231Z,2248
2018-01-31T10:12:38.765Z,2368
2018-01-31T10:13:19.311Z,2564
2018-01-31T10:13:59.913Z,2820
2018-01-31T10:14:40.444Z,3096
2018-01-31T10:15:20.976Z,3348
2018-01-31T10:16:01.512Z,3188
2018-01-31T10:16:42.057Z,3152
2018-01-31T10:17:22.658Z,3068
2018-01-31T10:18:03.155Z,2952
2018-01-31T10:18:43.758Z,2872
2018-01-31T10:19:24.256Z,2864
2018-01-31T10:20:04.835Z,2924
2018-01-31T10:20:45.328Z,2960
2018-01-31T10:21:25.934Z,2944
2018-01-31T10:22:06.456Z,2936
2018-01-31T10:22:46.974Z,2960
2018-01-31T10:23:27.550Z,2980
2018-01-31T10:24:08.078Z,2952
2018-01-31T10:24:48.646Z,2932
2018-01-31T10:25:29.154Z,2884
2018-01-31T10:26:09.720Z,2820
2018-01-31T10:26:50.273Z,2744
2018-01-31T10:27:30.853Z,2588
2018-01-31T10:28:11.356Z,2376
2018-01-31T10:28:51.897Z,2216
2018-01-31T10:29:32.504Z,2124
2018-01-31T10:30:13.010Z,2060
2018-01-31T10:30:53.570Z,2016
2018-01-31T10:31:34.077Z,2020
2018-01-31T10:32:14.589Z,2100
2018-01-31T10:32:55.140Z,2168
2018-01-31T10:33:35.658Z,2216
2018-01-31T10:34:16.194Z,2236
2018-01-31T10:34:56.740Z,2212
2018-01-31T10:35:37.326Z,2184
2018-01-31T10:36:17.870Z,2120
2018-01-31T10:36:58.426Z,2036
2018-01-31T10:37:38.949Z,1980
2018-01-31T10:38:19.500Z,1912
2018-01-31T10:39:00.064Z,1844
2018-01-31T10:39:40.606Z,1768
2018-01-31T10:40:21.186Z,1688
2018-01-31T10:41:01.714Z,1656
2018-01-31T10:41:42.321Z,1684
2018-01-31T10:42:22.835Z,1744
2018-01-31T10:43:03.440Z,1800
2018-01-31T10:43:43.968Z,1840
2018-01-31T10:44:24.514Z,1872
2018-01-31T10:45:05.080Z,1896
2018-01-31T10:45:45.697Z,1888
2018-01-31T10:46:26.237Z,1964
2018-01-31T10:47:06.765Z,2068
2018-01-31T10:47:47.346Z,2260
2018-01-31T10:48:27.909Z,2444
2018-01-31T10:49:08.452Z,2704
2018-01-31T10:49:49.000Z,2964
2018-01-31T10:50:29.553Z,3040
2018-01-31T10:51:10.092Z,3060
2018-01-31T10:51:50.636Z,2952
2018-01-31T10:52:31.173Z,2880
2018-01-31T10:53:11.741Z,2724
2018-01-31T10:57:28.427Z,2172
2018-01-31T10:57:29.031Z,2316
2018-01-31T10:57:33.813Z,2256
2018-01-31T10:57:55.597Z,2324
2018-01-31T10:58:36.147Z,2328
2018-01-31T10:59:16.707Z,2412
2018-01-31T10:59:57.220Z,2488
2018-01-31T11:00:37.750Z,2572
2018-01-31T11:01:18.267Z,2688
2018-01-31T11:01:58.779Z,2840
2018-01-31T11:02:39.310Z,2948
2018-01-31T11:03:19.877Z,2996
2018-01-31T11:04:00.494Z,3012
2018-01-31T11:04:40.982Z,3000
2018-01-31T11:05:21.516Z,3132
2018-01-31T11:06:02.155Z,3220
2018-01-31T11:06:42.754Z,3248
2018-01-31T11:07:23.314Z,3268
2018-01-31T11:08:03.857Z,3264
2018-01-31T11:08:44.388Z,3060
2018-01-31T11:09:25.063Z,2732
2018-01-31T11:10:05.601Z,2516
2018-01-31T11:10:46.143Z,2488
2018-01-31T11:11:26.692Z,2508
2018-01-31T11:12:07.280Z,2536
2018-01-31T11:12:47.833Z,2568
2018-01-31T11:13:28.501Z,2572
2018-01-31T11:14:09.061Z,2600
2018-01-31T11:14:49.611Z,2564
2018-01-31T11:15:30.113Z,2596
2018-01-31T11:16:10.653Z,2632
2018-01-31T11:16:51.230Z,2692
2018-01-31T11:17:31.817Z,2832
2018-01-31T11:18:12.370Z,3008
2018-01-31T11:18:52.902Z,3216
2018-01-31T11:19:33.396Z,3420
2018-01-31T11:20:13.908Z,3676
2018-01-31T11:20:54.445Z,3844
2018-01-31T11:21:35.015Z,4016
2018-01-31T11:22:15.515Z,4172
2018-01-31T11:22:56.081Z,4116
2018-01-31T11:23:36.614Z,3716
2018-01-31T11:24:17.156Z,3392
2018-01-31T11:24:58.598Z,3092
2018-01-31T11:25:38.275Z,3000
2018-01-31T11:26:18.825Z,2948
2018-01-31T11:26:59.409Z,3076
2018-01-31T11:27:39.996Z,3388
2018-01-31T11:28:20.556Z,3548
2018-01-31T11:29:01.105Z,3296